sensor_id;sensor_type;location;lat;lon;timestamp;P1;durP1;ratioP1;P2;durP2;ratioP2
47866;SDS011;33628;50.806;11.586;2022-12-20T00:00:00;30.73;;;14.90;;
47866;SDS011;33628;50.806;11.586;2022-12-20T00:02:27;25.25;;;10.27;;
47866;SDS011;33628;50.806;11.586;2022-12-20T00:04:54;27.17;;;12.15;;
47866;SDS011;33628;50.806;11.586;2022-12-20T00:07:21;30.77;;;12.52;;
47866;SDS011;33628;50.806;11.586;2022-12-20T00:09:50;29.75;;;12.85;;
47866;SDS011;33628;50.806;11.586;2022-12-20T00:12:16;25.45;;;12.68;;
47866;SDS011;33628;50.806;11.586;2022-12-20T00:14:44;27.55;;;13.80;;
47866;SDS011;33628;50.806;11.586;2022-12-20T00:17:10;29.90;;;13.10;;
47866;SDS011;33628;50.806;11.586;2022-12-20T00:19:37;28.95;;;13.68;;
47866;SDS011;33628;50.806;11.586;2022-12-20T00:22:04;28.77;;;13.05;;
47866;SDS011;33628;50.806;11.586;2022-12-20T00:24:31;28.05;;;13.80;;
47866;SDS011;33628;50.806;11.586;2022-12-20T00:26:59;30.58;;;14.63;;
47866;SDS011;33628;50.806;11.586;2022-12-20T00:29:26;30.50;;;14.40;;
47866;SDS011;33628;50.806;11.586;2022-12-20T00:31:53;33.13;;;16.55;;
47866;SDS011;33628;50.806;11.586;2022-12-20T00:34:20;27.45;;;13.60;;
47866;SDS011;33628;50.806;11.586;2022-12-20T00:36:46;33.88;;;16.52;;
47866;SDS011;33628;50.806;11.586;2022-12-20T00:39:13;30.55;;;12.00;;
47866;SDS011;33628;50.806;11.586;2022-12-20T00:41:40;24.30;;;11.98;;
47866;SDS011;33628;50.806;11.586;2022-12-20T00:44:08;24.85;;;12.88;;
47866;SDS011;33628;50.806;11.586;2022-12-20T00:46:35;29.38;;;13.02;;
47866;SDS011;33628;50.806;11.586;2022-12-20T00:49:02;24.85;;;11.85;;
47866;SDS011;33628;50.806;11.586;2022-12-20T00:51:29;28.60;;;13.57;;
47866;SDS011;33628;50.806;11.586;2022-12-20T00:53:57;25.98;;;12.50;;
47866;SDS011;33628;50.806;11.586;2022-12-20T00:56:24;27.05;;;13.30;;
47866;SDS011;33628;50.806;11.586;2022-12-20T00:58:51;25.80;;;12.20;;
47866;SDS011;33628;50.806;11.586;2022-12-20T01:01:21;23.80;;;12.38;;
47866;SDS011;33628;50.806;11.586;2022-12-20T01:03:49;27.85;;;14.02;;
47866;SDS011;33628;50.806;11.586;2022-12-20T01:06:16;27.20;;;13.43;;
47866;SDS011;33628;50.806;11.586;2022-12-20T01:08:43;33.97;;;15.70;;
47866;SDS011;33628;50.806;11.586;2022-12-20T01:11:11;25.10;;;13.60;;
47866;SDS011;33628;50.806;11.586;2022-12-20T01:13:40;25.20;;;14.60;;
47866;SDS011;33628;50.806;11.586;2022-12-20T01:16:11;27.85;;;13.85;;
47866;SDS011;33628;50.806;11.586;2022-12-20T01:18:40;31.48;;;14.95;;
47866;SDS011;33628;50.806;11.586;2022-12-20T01:21:08;27.17;;;14.30;;
47866;SDS011;33628;50.806;11.586;2022-12-20T01:23:36;28.67;;;14.57;;
47866;SDS011;33628;50.806;11.586;2022-12-20T01:26:04;31.33;;;14.32;;
47866;SDS011;33628;50.806;11.586;2022-12-20T01:28:34;25.73;;;12.80;;
47866;SDS011;33628;50.806;11.586;2022-12-20T01:31:01;26.27;;;14.30;;
47866;SDS011;33628;50.806;11.586;2022-12-20T01:33:30;28.48;;;14.20;;
47866;SDS011;33628;50.806;11.586;2022-12-20T01:35:59;27.52;;;14.57;;
47866;SDS011;33628;50.806;11.586;2022-12-20T01:38:26;28.85;;;14.73;;
47866;SDS011;33628;50.806;11.586;2022-12-20T01:40:53;23.92;;;12.68;;
47866;SDS011;33628;50.806;11.586;2022-12-20T01:43:22;25.48;;;13.95;;
47866;SDS011;33628;50.806;11.586;2022-12-20T01:45:50;25.70;;;13.52;;
47866;SDS011;33628;50.806;11.586;2022-12-20T01:48:19;30.75;;;14.70;;
47866;SDS011;33628;50.806;11.586;2022-12-20T01:50:47;28.48;;;14.55;;
47866;SDS011;33628;50.806;11.586;2022-12-20T01:53:16;26.50;;;14.80;;
47866;SDS011;33628;50.806;11.586;2022-12-20T01:55:43;33.85;;;15.18;;
47866;SDS011;33628;50.806;11.586;2022-12-20T01:58:12;31.17;;;16.27;;
47866;SDS011;33628;50.806;11.586;2022-12-20T02:00:40;30.40;;;14.88;;
47866;SDS011;33628;50.806;11.586;2022-12-20T02:03:08;31.75;;;14.73;;
47866;SDS011;33628;50.806;11.586;2022-12-20T02:05:38;29.67;;;13.07;;
47866;SDS011;33628;50.806;11.586;2022-12-20T02:08:07;30.25;;;12.82;;
47866;SDS011;33628;50.806;11.586;2022-12-20T02:10:40;29.10;;;13.43;;
47866;SDS011;33628;50.806;11.586;2022-12-20T02:13:22;26.67;;;13.40;;
47866;SDS011;33628;50.806;11.586;2022-12-20T02:15:53;28.05;;;13.70;;
47866;SDS011;33628;50.806;11.586;2022-12-20T02:18:21;28.15;;;13.02;;
47866;SDS011;33628;50.806;11.586;2022-12-20T02:20:55;30.92;;;13.55;;
47866;SDS011;33628;50.806;11.586;2022-12-20T02:26:47;34.55;;;15.85;;
47866;SDS011;33628;50.806;11.586;2022-12-20T02:29:39;28.95;;;15.15;;
47866;SDS011;33628;50.806;11.586;2022-12-20T02:32:23;31.77;;;14.32;;
47866;SDS011;33628;50.806;11.586;2022-12-20T02:34:51;32.45;;;14.20;;
47866;SDS011;33628;50.806;11.586;2022-12-20T02:37:18;25.85;;;12.85;;
47866;SDS011;33628;50.806;11.586;2022-12-20T02:39:45;26.92;;;12.70;;
47866;SDS011;33628;50.806;11.586;2022-12-20T02:42:14;29.58;;;13.90;;
47866;SDS011;33628;50.806;11.586;2022-12-20T02:44:43;26.75;;;14.02;;
47866;SDS011;33628;50.806;11.586;2022-12-20T02:47:32;32.17;;;13.90;;
47866;SDS011;33628;50.806;11.586;2022-12-20T02:50:01;30.48;;;14.07;;
47866;SDS011;33628;50.806;11.586;2022-12-20T02:52:28;33.95;;;13.98;;
47866;SDS011;33628;50.806;11.586;2022-12-20T02:54:56;28.20;;;13.77;;
47866;SDS011;33628;50.806;11.586;2022-12-20T02:57:25;31.20;;;13.55;;
47866;SDS011;33628;50.806;11.586;2022-12-20T02:59:58;30.85;;;13.93;;
47866;SDS011;33628;50.806;11.586;2022-12-20T03:02:33;30.00;;;14.25;;
47866;SDS011;33628;50.806;11.586;2022-12-20T03:05:21;34.45;;;14.88;;
47866;SDS011;33628;50.806;11.586;2022-12-20T03:07:49;31.02;;;13.45;;
47866;SDS011;33628;50.806;11.586;2022-12-20T03:10:19;32.50;;;14.10;;
47866;SDS011;33628;50.806;11.586;2022-12-20T03:12:47;32.15;;;14.77;;
47866;SDS011;33628;50.806;11.586;2022-12-20T03:15:13;27.63;;;13.73;;
47866;SDS011;33628;50.806;11.586;2022-12-20T03:17:42;33.15;;;15.20;;
47866;SDS011;33628;50.806;11.586;2022-12-20T03:20:09;33.78;;;14.45;;
47866;SDS011;33628;50.806;11.586;2022-12-20T03:22:39;29.77;;;14.38;;
47866;SDS011;33628;50.806;11.586;2022-12-20T03:25:06;31.48;;;15.15;;
47866;SDS011;33628;50.806;11.586;2022-12-20T03:27:34;28.48;;;14.43;;
47866;SDS011;33628;50.806;11.586;2022-12-20T03:30:02;31.05;;;14.02;;
47866;SDS011;33628;50.806;11.586;2022-12-20T03:32:33;29.35;;;14.43;;
47866;SDS011;33628;50.806;11.586;2022-12-20T03:35:01;36.78;;;14.90;;
47866;SDS011;33628;50.806;11.586;2022-12-20T03:37:34;29.73;;;14.60;;
47866;SDS011;33628;50.806;11.586;2022-12-20T03:40:03;30.05;;;13.50;;
47866;SDS011;33628;50.806;11.586;2022-12-20T03:42:32;31.65;;;13.88;;
47866;SDS011;33628;50.806;11.586;2022-12-20T03:44:58;32.17;;;14.43;;
47866;SDS011;33628;50.806;11.586;2022-12-20T03:47:28;31.02;;;13.13;;
47866;SDS011;33628;50.806;11.586;2022-12-20T03:49:54;28.77;;;13.38;;
47866;SDS011;33628;50.806;11.586;2022-12-20T03:52:23;34.38;;;14.77;;
47866;SDS011;33628;50.806;11.586;2022-12-20T03:54:49;32.22;;;14.45;;
47866;SDS011;33628;50.806;11.586;2022-12-20T03:57:19;29.65;;;14.65;;
47866;SDS011;33628;50.806;11.586;2022-12-20T03:59:48;35.95;;;17.42;;
47866;SDS011;33628;50.806;11.586;2022-12-20T04:02:18;39.72;;;17.40;;
47866;SDS011;33628;50.806;11.586;2022-12-20T04:04:44;31.17;;;15.15;;
47866;SDS011;33628;50.806;11.586;2022-12-20T04:07:11;30.27;;;14.55;;
47866;SDS011;33628;50.806;11.586;2022-12-20T04:09:44;35.28;;;15.00;;
47866;SDS011;33628;50.806;11.586;2022-12-20T04:12:12;30.25;;;13.77;;
47866;SDS011;33628;50.806;11.586;2022-12-20T04:14:39;30.83;;;15.02;;
47866;SDS011;33628;50.806;11.586;2022-12-20T04:17:06;33.35;;;15.35;;
47866;SDS011;33628;50.806;11.586;2022-12-20T04:19:34;27.30;;;13.60;;
47866;SDS011;33628;50.806;11.586;2022-12-20T04:22:02;34.42;;;15.45;;
47866;SDS011;33628;50.806;11.586;2022-12-20T04:24:35;29.83;;;15.40;;
47866;SDS011;33628;50.806;11.586;2022-12-20T04:27:15;35.42;;;16.05;;
47866;SDS011;33628;50.806;11.586;2022-12-20T04:29:42;39.25;;;17.48;;
47866;SDS011;33628;50.806;11.586;2022-12-20T04:32:13;43.45;;;19.73;;
47866;SDS011;33628;50.806;11.586;2022-12-20T05:15:29;32.55;;;16.45;;
47866;SDS011;33628;50.806;11.586;2022-12-20T05:17:57;34.35;;;16.83;;
47866;SDS011;33628;50.806;11.586;2022-12-20T05:20:28;30.65;;;15.38;;
47866;SDS011;33628;50.806;11.586;2022-12-20T05:22:58;33.10;;;15.00;;
47866;SDS011;33628;50.806;11.586;2022-12-20T05:25:45;36.25;;;17.95;;
47866;SDS011;33628;50.806;11.586;2022-12-20T05:28:33;39.25;;;17.60;;
47866;SDS011;33628;50.806;11.586;2022-12-20T05:31:02;36.83;;;17.08;;
47866;SDS011;33628;50.806;11.586;2022-12-20T05:33:32;36.78;;;17.98;;
47866;SDS011;33628;50.806;11.586;2022-12-20T05:36:00;36.30;;;16.77;;
47866;SDS011;33628;50.806;11.586;2022-12-20T05:38:26;38.65;;;17.15;;
47866;SDS011;33628;50.806;11.586;2022-12-20T05:40:54;38.20;;;18.98;;
47866;SDS011;33628;50.806;11.586;2022-12-20T05:43:20;34.50;;;16.98;;
47866;SDS011;33628;50.806;11.586;2022-12-20T05:45:47;39.78;;;18.05;;
47866;SDS011;33628;50.806;11.586;2022-12-20T05:48:20;35.60;;;17.10;;
47866;SDS011;33628;50.806;11.586;2022-12-20T05:50:47;35.70;;;16.52;;
47866;SDS011;33628;50.806;11.586;2022-12-20T05:53:25;33.67;;;17.50;;
47866;SDS011;33628;50.806;11.586;2022-12-20T05:55:56;41.90;;;19.98;;
47866;SDS011;33628;50.806;11.586;2022-12-20T05:58:29;37.15;;;17.60;;
47866;SDS011;33628;50.806;11.586;2022-12-20T06:00:59;42.88;;;18.23;;
47866;SDS011;33628;50.806;11.586;2022-12-20T06:03:28;38.10;;;16.55;;
47866;SDS011;33628;50.806;11.586;2022-12-20T06:05:56;47.17;;;18.88;;
47866;SDS011;33628;50.806;11.586;2022-12-20T06:08:27;44.60;;;18.00;;
47866;SDS011;33628;50.806;11.586;2022-12-20T06:10:55;37.22;;;18.63;;
47866;SDS011;33628;50.806;11.586;2022-12-20T06:13:23;42.55;;;18.73;;
47866;SDS011;33628;50.806;11.586;2022-12-20T06:15:52;38.20;;;17.27;;
47866;SDS011;33628;50.806;11.586;2022-12-20T06:18:20;39.55;;;16.35;;
47866;SDS011;33628;50.806;11.586;2022-12-20T06:20:52;38.15;;;19.75;;
47866;SDS011;33628;50.806;11.586;2022-12-20T06:23:23;35.33;;;15.77;;
47866;SDS011;33628;50.806;11.586;2022-12-20T06:25:58;37.90;;;16.58;;
47866;SDS011;33628;50.806;11.586;2022-12-20T06:28:29;41.63;;;18.70;;
47866;SDS011;33628;50.806;11.586;2022-12-20T06:30:56;33.13;;;17.20;;
47866;SDS011;33628;50.806;11.586;2022-12-20T06:33:37;34.72;;;17.00;;
47866;SDS011;33628;50.806;11.586;2022-12-20T06:36:05;39.75;;;18.40;;
47866;SDS011;33628;50.806;11.586;2022-12-20T06:38:32;39.30;;;17.98;;
47866;SDS011;33628;50.806;11.586;2022-12-20T06:40:59;33.78;;;17.02;;
47866;SDS011;33628;50.806;11.586;2022-12-20T06:43:26;32.13;;;16.15;;
47866;SDS011;33628;50.806;11.586;2022-12-20T06:45:53;35.65;;;17.10;;
47866;SDS011;33628;50.806;11.586;2022-12-20T06:48:20;40.38;;;17.98;;
47866;SDS011;33628;50.806;11.586;2022-12-20T06:50:47;42.65;;;19.88;;
47866;SDS011;33628;50.806;11.586;2022-12-20T06:53:17;38.28;;;18.15;;
47866;SDS011;33628;50.806;11.586;2022-12-20T06:55:45;38.67;;;19.25;;
47866;SDS011;33628;50.806;11.586;2022-12-20T06:58:12;40.03;;;18.30;;
47866;SDS011;33628;50.806;11.586;2022-12-20T07:00:39;42.70;;;18.90;;
47866;SDS011;33628;50.806;11.586;2022-12-20T07:03:06;42.83;;;18.88;;
47866;SDS011;33628;50.806;11.586;2022-12-20T07:05:32;38.60;;;17.95;;
47866;SDS011;33628;50.806;11.586;2022-12-20T07:07:59;39.13;;;18.77;;
47866;SDS011;33628;50.806;11.586;2022-12-20T07:10:29;54.05;;;26.23;;
47866;SDS011;33628;50.806;11.586;2022-12-20T07:12:55;56.83;;;26.90;;
47866;SDS011;33628;50.806;11.586;2022-12-20T07:15:22;50.85;;;21.15;;
47866;SDS011;33628;50.806;11.586;2022-12-20T07:17:49;58.13;;;27.75;;
47866;SDS011;33628;50.806;11.586;2022-12-20T07:20:16;52.97;;;24.38;;
47866;SDS011;33628;50.806;11.586;2022-12-20T07:22:44;54.78;;;25.75;;
47866;SDS011;33628;50.806;11.586;2022-12-20T07:25:12;48.92;;;22.65;;
47866;SDS011;33628;50.806;11.586;2022-12-20T07:27:41;46.58;;;22.00;;
47866;SDS011;33628;50.806;11.586;2022-12-20T07:30:07;47.33;;;20.88;;
47866;SDS011;33628;50.806;11.586;2022-12-20T07:32:34;50.60;;;23.77;;
47866;SDS011;33628;50.806;11.586;2022-12-20T07:35:01;58.88;;;26.50;;
47866;SDS011;33628;50.806;11.586;2022-12-20T07:37:27;52.17;;;25.45;;
47866;SDS011;33628;50.806;11.586;2022-12-20T07:39:55;61.83;;;32.03;;
47866;SDS011;33628;50.806;11.586;2022-12-20T07:42:21;47.47;;;22.25;;
47866;SDS011;33628;50.806;11.586;2022-12-20T07:44:51;46.42;;;22.60;;
47866;SDS011;33628;50.806;11.586;2022-12-20T07:47:17;44.97;;;21.52;;
47866;SDS011;33628;50.806;11.586;2022-12-20T07:49:44;43.00;;;19.85;;
47866;SDS011;33628;50.806;11.586;2022-12-20T07:52:11;40.75;;;19.40;;
47866;SDS011;33628;50.806;11.586;2022-12-20T07:54:40;46.50;;;21.08;;
47866;SDS011;33628;50.806;11.586;2022-12-20T07:57:11;41.45;;;19.70;;
47866;SDS011;33628;50.806;11.586;2022-12-20T07:59:41;35.70;;;19.20;;
47866;SDS011;33628;50.806;11.586;2022-12-20T08:02:12;53.40;;;22.80;;
47866;SDS011;33628;50.806;11.586;2022-12-20T08:04:40;47.97;;;24.10;;
47866;SDS011;33628;50.806;11.586;2022-12-20T08:07:07;40.83;;;20.45;;
47866;SDS011;33628;50.806;11.586;2022-12-20T08:09:35;44.03;;;21.45;;
47866;SDS011;33628;50.806;11.586;2022-12-20T08:12:03;44.42;;;22.77;;
47866;SDS011;33628;50.806;11.586;2022-12-20T08:14:30;40.53;;;22.00;;
47866;SDS011;33628;50.806;11.586;2022-12-20T08:16:58;38.47;;;19.42;;
47866;SDS011;33628;50.806;11.586;2022-12-20T08:19:26;44.17;;;21.50;;
47866;SDS011;33628;50.806;11.586;2022-12-20T08:21:53;36.67;;;19.25;;
47866;SDS011;33628;50.806;11.586;2022-12-20T08:24:19;40.70;;;20.80;;
47866;SDS011;33628;50.806;11.586;2022-12-20T08:26:47;45.13;;;24.58;;
47866;SDS011;33628;50.806;11.586;2022-12-20T08:29:13;46.03;;;24.60;;
47866;SDS011;33628;50.806;11.586;2022-12-20T08:31:40;39.88;;;21.60;;
47866;SDS011;33628;50.806;11.586;2022-12-20T08:34:07;42.28;;;21.02;;
47866;SDS011;33628;50.806;11.586;2022-12-20T08:36:36;46.60;;;22.67;;
47866;SDS011;33628;50.806;11.586;2022-12-20T08:39:02;38.70;;;20.42;;
47866;SDS011;33628;50.806;11.586;2022-12-20T08:41:30;39.15;;;20.15;;
47866;SDS011;33628;50.806;11.586;2022-12-20T08:44:01;39.38;;;21.40;;
47866;SDS011;33628;50.806;11.586;2022-12-20T08:46:28;38.72;;;19.15;;
47866;SDS011;33628;50.806;11.586;2022-12-20T08:48:57;36.28;;;17.95;;
47866;SDS011;33628;50.806;11.586;2022-12-20T08:51:24;32.85;;;16.02;;
47866;SDS011;33628;50.806;11.586;2022-12-20T08:53:52;30.52;;;16.63;;
47866;SDS011;33628;50.806;11.586;2022-12-20T08:56:19;30.35;;;17.00;;
47866;SDS011;33628;50.806;11.586;2022-12-20T08:58:46;31.13;;;15.77;;
47866;SDS011;33628;50.806;11.586;2022-12-20T09:01:13;35.70;;;17.98;;
47866;SDS011;33628;50.806;11.586;2022-12-20T09:03:41;36.63;;;17.55;;
47866;SDS011;33628;50.806;11.586;2022-12-20T09:06:09;33.78;;;17.67;;
47866;SDS011;33628;50.806;11.586;2022-12-20T09:08:37;34.17;;;17.88;;
47866;SDS011;33628;50.806;11.586;2022-12-20T09:11:06;35.60;;;18.52;;
47866;SDS011;33628;50.806;11.586;2022-12-20T09:13:34;36.45;;;18.60;;
47866;SDS011;33628;50.806;11.586;2022-12-20T09:16:00;35.22;;;19.25;;
47866;SDS011;33628;50.806;11.586;2022-12-20T09:18:28;42.08;;;22.45;;
47866;SDS011;33628;50.806;11.586;2022-12-20T09:20:55;39.53;;;19.60;;
47866;SDS011;33628;50.806;11.586;2022-12-20T09:23:24;35.90;;;19.40;;
47866;SDS011;33628;50.806;11.586;2022-12-20T09:25:51;34.17;;;19.08;;
47866;SDS011;33628;50.806;11.586;2022-12-20T09:28:19;40.28;;;20.48;;
47866;SDS011;33628;50.806;11.586;2022-12-20T09:30:45;41.63;;;21.70;;
47866;SDS011;33628;50.806;11.586;2022-12-20T09:33:12;38.40;;;19.33;;
47866;SDS011;33628;50.806;11.586;2022-12-20T09:35:43;39.40;;;19.23;;
47866;SDS011;33628;50.806;11.586;2022-12-20T09:38:10;41.67;;;21.15;;
47866;SDS011;33628;50.806;11.586;2022-12-20T09:40:37;46.97;;;22.35;;
47866;SDS011;33628;50.806;11.586;2022-12-20T09:43:05;44.15;;;24.10;;
47866;SDS011;33628;50.806;11.586;2022-12-20T09:45:36;37.67;;;20.15;;
47866;SDS011;33628;50.806;11.586;2022-12-20T09:48:03;37.33;;;20.42;;
47866;SDS011;33628;50.806;11.586;2022-12-20T09:50:34;39.30;;;19.30;;
47866;SDS011;33628;50.806;11.586;2022-12-20T09:53:09;37.17;;;18.58;;
47866;SDS011;33628;50.806;11.586;2022-12-20T09:55:42;40.38;;;20.50;;
47866;SDS011;33628;50.806;11.586;2022-12-20T09:58:16;36.42;;;20.05;;
47866;SDS011;33628;50.806;11.586;2022-12-20T10:00:49;35.53;;;18.60;;
47866;SDS011;33628;50.806;11.586;2022-12-20T10:03:20;36.40;;;20.38;;
47866;SDS011;33628;50.806;11.586;2022-12-20T10:05:50;37.10;;;20.92;;
47866;SDS011;33628;50.806;11.586;2022-12-20T10:08:22;39.50;;;21.33;;
47866;SDS011;33628;50.806;11.586;2022-12-20T10:10:53;37.13;;;19.13;;
47866;SDS011;33628;50.806;11.586;2022-12-20T10:13:27;44.92;;;20.83;;
47866;SDS011;33628;50.806;11.586;2022-12-20T10:16:21;38.63;;;20.00;;
47866;SDS011;33628;50.806;11.586;2022-12-20T10:18:57;32.28;;;17.88;;
47866;SDS011;33628;50.806;11.586;2022-12-20T10:21:32;26.05;;;13.23;;
47866;SDS011;33628;50.806;11.586;2022-12-20T10:24:02;28.42;;;11.25;;
47866;SDS011;33628;50.806;11.586;2022-12-20T10:26:30;27.10;;;14.25;;
47866;SDS011;33628;50.806;11.586;2022-12-20T10:28:58;24.08;;;13.07;;
47866;SDS011;33628;50.806;11.586;2022-12-20T10:31:26;28.92;;;13.65;;
47866;SDS011;33628;50.806;11.586;2022-12-20T10:33:54;28.00;;;14.00;;
47866;SDS011;33628;50.806;11.586;2022-12-20T10:36:21;29.95;;;13.95;;
47866;SDS011;33628;50.806;11.586;2022-12-20T10:38:55;31.95;;;13.60;;
47866;SDS011;33628;50.806;11.586;2022-12-20T10:41:23;28.88;;;15.90;;
47866;SDS011;33628;50.806;11.586;2022-12-20T10:43:57;30.17;;;12.98;;
47866;SDS011;33628;50.806;11.586;2022-12-20T10:46:37;26.15;;;13.68;;
47866;SDS011;33628;50.806;11.586;2022-12-20T10:51:54;21.60;;;11.85;;
47866;SDS011;33628;50.806;11.586;2022-12-20T10:54:22;28.05;;;11.85;;
47866;SDS011;33628;50.806;11.586;2022-12-20T10:56:53;29.17;;;12.77;;
47866;SDS011;33628;50.806;11.586;2022-12-20T10:59:22;24.33;;;13.80;;
47866;SDS011;33628;50.806;11.586;2022-12-20T11:01:55;24.10;;;12.32;;
47866;SDS011;33628;50.806;11.586;2022-12-20T11:04:24;25.52;;;11.88;;
47866;SDS011;33628;50.806;11.586;2022-12-20T11:06:52;26.40;;;13.02;;
47866;SDS011;33628;50.806;11.586;2022-12-20T11:09:21;23.90;;;13.00;;
47866;SDS011;33628;50.806;11.586;2022-12-20T11:11:56;25.90;;;14.05;;
47866;SDS011;33628;50.806;11.586;2022-12-20T11:14:24;25.23;;;13.40;;
47866;SDS011;33628;50.806;11.586;2022-12-20T11:16:51;29.30;;;14.55;;
47866;SDS011;33628;50.806;11.586;2022-12-20T11:19:28;23.63;;;13.68;;
47866;SDS011;33628;50.806;11.586;2022-12-20T11:21:58;27.67;;;13.55;;
47866;SDS011;33628;50.806;11.586;2022-12-20T11:24:30;22.70;;;12.68;;
47866;SDS011;33628;50.806;11.586;2022-12-20T11:27:07;30.52;;;13.00;;
47866;SDS011;33628;50.806;11.586;2022-12-20T11:29:58;20.10;;;11.32;;
47866;SDS011;33628;50.806;11.586;2022-12-20T11:32:36;29.23;;;13.98;;
47866;SDS011;33628;50.806;11.586;2022-12-20T11:35:29;26.75;;;13.45;;
47866;SDS011;33628;50.806;11.586;2022-12-20T11:38:03;25.08;;;11.95;;
47866;SDS011;33628;50.806;11.586;2022-12-20T11:40:32;25.20;;;12.77;;
47866;SDS011;33628;50.806;11.586;2022-12-20T11:43:09;22.55;;;11.52;;
47866;SDS011;33628;50.806;11.586;2022-12-20T11:45:53;26.40;;;12.27;;
47866;SDS011;33628;50.806;11.586;2022-12-20T11:48:49;24.50;;;12.48;;
47866;SDS011;33628;50.806;11.586;2022-12-20T11:51:28;33.38;;;14.45;;
47866;SDS011;33628;50.806;11.586;2022-12-20T11:54:02;26.65;;;13.88;;
47866;SDS011;33628;50.806;11.586;2022-12-20T11:56:34;28.20;;;13.90;;
47866;SDS011;33628;50.806;11.586;2022-12-20T11:59:02;32.67;;;15.90;;
47866;SDS011;33628;50.806;11.586;2022-12-20T12:01:32;28.15;;;13.75;;
47866;SDS011;33628;50.806;11.586;2022-12-20T12:04:03;25.00;;;12.65;;
47866;SDS011;33628;50.806;11.586;2022-12-20T12:06:36;26.95;;;14.27;;
47866;SDS011;33628;50.806;11.586;2022-12-20T12:09:07;26.77;;;13.93;;
47866;SDS011;33628;50.806;11.586;2022-12-20T12:11:39;27.08;;;12.93;;
47866;SDS011;33628;50.806;11.586;2022-12-20T12:14:09;26.30;;;14.63;;
47866;SDS011;33628;50.806;11.586;2022-12-20T12:16:43;30.88;;;19.50;;
47866;SDS011;33628;50.806;11.586;2022-12-20T12:19:12;37.63;;;20.65;;
47866;SDS011;33628;50.806;11.586;2022-12-20T12:21:41;35.13;;;18.02;;
47866;SDS011;33628;50.806;11.586;2022-12-20T12:24:13;33.20;;;17.73;;
47866;SDS011;33628;50.806;11.586;2022-12-20T12:26:44;35.60;;;21.65;;
47866;SDS011;33628;50.806;11.586;2022-12-20T12:29:12;29.17;;;15.18;;
47866;SDS011;33628;50.806;11.586;2022-12-20T12:31:40;29.15;;;15.20;;
47866;SDS011;33628;50.806;11.586;2022-12-20T12:34:13;26.63;;;14.10;;
47866;SDS011;33628;50.806;11.586;2022-12-20T12:36:50;23.92;;;14.43;;
47866;SDS011;33628;50.806;11.586;2022-12-20T12:45:31;20.48;;;11.15;;
47866;SDS011;33628;50.806;11.586;2022-12-20T12:48:01;21.85;;;11.63;;
47866;SDS011;33628;50.806;11.586;2022-12-20T12:50:32;20.23;;;11.57;;
47866;SDS011;33628;50.806;11.586;2022-12-20T12:53:04;25.83;;;14.13;;
47866;SDS011;33628;50.806;11.586;2022-12-20T12:55:43;20.52;;;11.65;;
47866;SDS011;33628;50.806;11.586;2022-12-20T13:01:08;19.77;;;10.55;;
47866;SDS011;33628;50.806;11.586;2022-12-20T13:03:45;18.27;;;9.20;;
47866;SDS011;33628;50.806;11.586;2022-12-20T13:09:40;24.63;;;11.75;;
47866;SDS011;33628;50.806;11.586;2022-12-20T13:18:21;22.38;;;9.77;;
47866;SDS011;33628;50.806;11.586;2022-12-20T13:27:12;14.85;;;7.88;;
47866;SDS011;33628;50.806;11.586;2022-12-20T13:29:55;16.13;;;8.38;;
47866;SDS011;33628;50.806;11.586;2022-12-20T13:32:53;18.20;;;9.38;;
47866;SDS011;33628;50.806;11.586;2022-12-20T13:35:30;14.95;;;8.13;;
47866;SDS011;33628;50.806;11.586;2022-12-20T13:37:58;19.17;;;8.70;;
47866;SDS011;33628;50.806;11.586;2022-12-20T13:40:30;20.40;;;10.45;;
47866;SDS011;33628;50.806;11.586;2022-12-20T13:43:03;19.85;;;9.80;;
47866;SDS011;33628;50.806;11.586;2022-12-20T13:45:32;20.42;;;8.20;;
47866;SDS011;33628;50.806;11.586;2022-12-20T13:48:00;20.27;;;9.50;;
47866;SDS011;33628;50.806;11.586;2022-12-20T13:50:31;20.13;;;11.13;;
47866;SDS011;33628;50.806;11.586;2022-12-20T13:53:00;21.08;;;10.48;;
47866;SDS011;33628;50.806;11.586;2022-12-20T13:55:33;22.98;;;10.85;;
47866;SDS011;33628;50.806;11.586;2022-12-20T13:58:08;31.60;;;15.13;;
47866;SDS011;33628;50.806;11.586;2022-12-20T14:00:38;28.05;;;13.52;;
47866;SDS011;33628;50.806;11.586;2022-12-20T14:03:06;41.38;;;16.95;;
47866;SDS011;33628;50.806;11.586;2022-12-20T14:05:39;52.40;;;19.27;;
47866;SDS011;33628;50.806;11.586;2022-12-20T14:08:06;32.20;;;13.88;;
47866;SDS011;33628;50.806;11.586;2022-12-20T14:10:36;29.27;;;12.98;;
47866;SDS011;33628;50.806;11.586;2022-12-20T14:13:13;20.30;;;10.43;;
47866;SDS011;33628;50.806;11.586;2022-12-20T14:15:45;21.35;;;11.40;;
47866;SDS011;33628;50.806;11.586;2022-12-20T14:18:15;21.33;;;11.05;;
47866;SDS011;33628;50.806;11.586;2022-12-20T14:20:43;33.25;;;12.70;;
47866;SDS011;33628;50.806;11.586;2022-12-20T14:23:13;36.63;;;17.45;;
47866;SDS011;33628;50.806;11.586;2022-12-20T14:25:42;25.88;;;12.27;;
47866;SDS011;33628;50.806;11.586;2022-12-20T14:28:16;19.90;;;9.45;;
47866;SDS011;33628;50.806;11.586;2022-12-20T14:30:47;21.05;;;10.30;;
47866;SDS011;33628;50.806;11.586;2022-12-20T14:33:17;18.88;;;9.90;;
47866;SDS011;33628;50.806;11.586;2022-12-20T14:35:46;23.73;;;12.32;;
47866;SDS011;33628;50.806;11.586;2022-12-20T14:38:18;24.33;;;11.95;;
47866;SDS011;33628;50.806;11.586;2022-12-20T14:40:47;23.00;;;13.48;;
47866;SDS011;33628;50.806;11.586;2022-12-20T14:43:13;27.15;;;15.55;;
47866;SDS011;33628;50.806;11.586;2022-12-20T14:45:46;26.42;;;14.27;;
47866;SDS011;33628;50.806;11.586;2022-12-20T14:48:13;26.33;;;14.50;;
47866;SDS011;33628;50.806;11.586;2022-12-20T14:50:49;30.15;;;13.55;;
47866;SDS011;33628;50.806;11.586;2022-12-20T14:53:19;25.02;;;12.57;;
47866;SDS011;33628;50.806;11.586;2022-12-20T14:55:49;26.58;;;14.30;;
47866;SDS011;33628;50.806;11.586;2022-12-20T14:58:24;24.75;;;13.80;;
47866;SDS011;33628;50.806;11.586;2022-12-20T15:00:55;23.23;;;12.18;;
47866;SDS011;33628;50.806;11.586;2022-12-20T15:03:24;22.17;;;11.40;;
47866;SDS011;33628;50.806;11.586;2022-12-20T15:05:51;18.98;;;10.38;;
47866;SDS011;33628;50.806;11.586;2022-12-20T15:08:19;21.40;;;10.90;;
47866;SDS011;33628;50.806;11.586;2022-12-20T15:10:55;24.05;;;12.57;;
47866;SDS011;33628;50.806;11.586;2022-12-20T15:13:27;25.15;;;11.15;;
47866;SDS011;33628;50.806;11.586;2022-12-20T15:16:00;26.05;;;13.05;;
47866;SDS011;33628;50.806;11.586;2022-12-20T15:18:28;29.70;;;16.00;;
47866;SDS011;33628;50.806;11.586;2022-12-20T15:20:58;31.75;;;16.55;;
47866;SDS011;33628;50.806;11.586;2022-12-20T15:23:27;32.47;;;17.05;;
47866;SDS011;33628;50.806;11.586;2022-12-20T15:25:54;35.75;;;18.42;;
47866;SDS011;33628;50.806;11.586;2022-12-20T15:28:21;42.28;;;21.60;;
47866;SDS011;33628;50.806;11.586;2022-12-20T15:30:51;34.38;;;18.58;;
47866;SDS011;33628;50.806;11.586;2022-12-20T15:33:18;50.03;;;26.85;;
47866;SDS011;33628;50.806;11.586;2022-12-20T15:35:46;32.08;;;18.38;;